Time;durP1;ratioP1;P1;durP2;ratioP2;P2;SDS_P1;SDS_P2;PMS_P1;PMS_P2;Temp;Humidity;BMP_temperature;BMP_pressure;BME280_temperature;BME280_humidity;BME280_pressure;Samples;Min_cycle;Max_cycle;Signal;HPM_P1;HPM_P2
2022/03/17 00:02:07;;;;;;;8.27;5.20;;;;;;;-3.72;50.92;102018.53;5084600;28;20028;-60
2022/03/17 00:04:33;;;;;;;6.45;4.78;;;;;;;-3.78;50.91;102023.16;5084585;28;20020;-61
2022/03/17 00:07:00;;;;;;;11.77;5.55;;;;;;;-3.89;49.99;102000.47;5104024;28;20103;-61
2022/03/17 00:09:26;;;;;;;7.85;5.30;;;;;;;-3.87;51.10;102015.75;5105752;28;20054;-61
2022/03/17 00:11:52;;;;;;;9.40;5.30;;;;;;;-4.21;50.98;102015.72;5105697;28;20060;-59
2022/03/17 00:14:19;;;;;;;8.32;5.47;;;;;;;-4.06;51.84;102019.44;5104594;28;20024;-60
2022/03/17 00:16:44;;;;;;;9.93;4.82;;;;;;;-4.11;51.95;102014.78;5105699;28;20316;-60
2022/03/17 00:19:10;;;;;;;8.93;5.10;;;;;;;-4.19;51.44;102016.72;5105664;28;20070;-61
2022/03/17 00:21:36;;;;;;;7.63;5.28;;;;;;;-4.08;50.70;102015.88;5105663;28;20027;-61
2022/03/17 00:24:04;;;;;;;8.70;5.15;;;;;;;-4.23;51.23;101986.88;5105770;28;20061;-60
2022/03/17 00:26:29;;;;;;;6.85;4.80;;;;;;;-4.12;52.06;102008.81;5121521;28;20038;-60
2022/03/17 00:28:55;;;;;;;8.02;5.10;;;;;;;-4.05;51.37;102011.06;5105654;28;20051;-60
2022/03/17 00:31:21;;;;;;;8.43;5.60;;;;;;;-4.01;51.65;102010.53;5105451;28;20020;-61
2022/03/17 00:33:46;;;;;;;8.32;5.18;;;;;;;-3.98;51.69;102007.34;5105441;28;20062;-61
2022/03/17 00:36:12;;;;;;;6.97;5.18;;;;;;;-3.90;51.66;102003.75;5121098;28;20102;-60
2022/03/17 00:38:37;;;;;;;7.72;5.13;;;;;;;-4.01;51.71;102014.72;5105400;28;20035;-60
2022/03/17 00:41:03;;;;;;;7.38;5.20;;;;;;;-4.05;50.98;102020.31;5105316;28;20023;-60
2022/03/17 00:43:29;;;;;;;8.60;5.35;;;;;;;-4.08;50.27;102015.00;5105302;28;20024;-60
2022/03/17 00:45:54;;;;;;;9.30;5.35;;;;;;;-3.96;51.74;102015.94;5105216;28;20029;-62
2022/03/17 00:48:20;;;;;;;7.95;5.40;;;;;;;-4.01;51.38;102022.31;5105232;28;20039;-61
2022/03/17 00:50:45;;;;;;;8.10;5.68;;;;;;;-3.96;51.14;102025.16;5105225;28;20081;-61
2022/03/17 00:53:11;;;;;;;7.28;5.07;;;;;;;-3.97;51.70;102018.38;5105125;28;20016;-61
2022/03/17 00:55:37;;;;;;;10.27;5.07;;;;;;;-3.87;51.80;102033.47;5105000;28;20335;-60
2022/03/17 00:58:02;;;;;;;10.10;5.72;;;;;;;-3.95;51.95;102022.75;5104996;28;20269;-59
2022/03/17 01:00:28;;;;;;;9.88;5.93;;;;;;;-3.95;52.78;102029.47;5103508;28;20031;-61
2022/03/17 01:02:54;;;;;;;8.65;5.18;;;;;;;-3.88;51.15;102039.28;5104586;28;20026;-60
2022/03/17 01:05:22;;;;;;;8.88;5.38;;;;;;;-3.90;52.15;102035.78;5104827;28;20065;-60
2022/03/17 01:07:49;;;;;;;9.23;5.45;;;;;;;-3.85;52.41;102049.63;5099734;28;20274;-60
2022/03/17 01:10:16;;;;;;;11.48;5.90;;;;;;;-3.94;50.79;102043.91;5084480;28;20032;-59
2022/03/17 01:12:44;;;;;;;8.00;5.35;;;;;;;-4.10;50.68;102044.41;5084405;28;20110;-61
2022/03/17 01:15:10;;;;;;;9.40;6.10;;;;;;;-4.16;52.33;102053.25;5096679;28;20027;-60
2022/03/17 01:17:36;;;;;;;8.10;5.75;;;;;;;-4.23;50.53;102034.94;5104310;28;20032;-60
2022/03/17 01:20:02;;;;;;;11.10;5.70;;;;;;;-4.26;51.70;102034.72;5103723;28;20051;-61
2022/03/17 01:22:29;;;;;;;12.25;5.78;;;;;;;-4.25;52.50;102050.00;5104648;28;20028;-60
2022/03/17 01:24:54;;;;;;;8.45;5.90;;;;;;;-4.28;52.28;102037.13;5104426;28;20031;-61
2022/03/17 01:27:23;;;;;;;11.98;5.70;;;;;;;-4.27;51.83;102038.91;5103214;28;20023;-61
2022/03/17 01:29:49;;;;;;;7.25;5.40;;;;;;;-4.18;51.46;102043.78;5104498;28;20020;-61
2022/03/17 01:32:15;;;;;;;9.85;6.10;;;;;;;-4.16;51.88;102052.41;5104336;28;20032;-60
2022/03/17 01:34:41;;;;;;;8.20;5.63;;;;;;;-4.12;52.57;102056.03;5104152;28;20209;-62
2022/03/17 01:37:07;;;;;;;9.30;6.13;;;;;;;-4.12;52.79;102063.63;5104347;28;20015;-61
2022/03/17 01:39:33;;;;;;;7.65;5.45;;;;;;;-4.32;52.13;102046.91;5104095;28;20028;-61
2022/03/17 01:41:59;;;;;;;8.23;5.50;;;;;;;-4.13;52.00;102065.28;5103580;28;20324;-61
2022/03/17 01:44:25;;;;;;;8.15;5.57;;;;;;;-4.10;52.76;102065.50;5104177;28;20363;-62
2022/03/17 01:49:40;;;;;;;8.07;5.43;;;;;;;-4.15;52.78;102064.25;5104054;28;20027;-61
2022/03/17 01:52:06;;;;;;;9.65;5.93;;;;;;;-4.10;51.50;102068.03;5103893;28;20561;-60
2022/03/17 01:54:33;;;;;;;9.73;5.93;;;;;;;-4.11;52.06;102066.25;5102744;28;20027;-60
2022/03/17 01:56:58;;;;;;;11.45;5.95;;;;;;;-4.26;51.45;102068.50;5103894;28;20339;-60
2022/03/17 01:59:26;;;;;;;10.05;6.50;;;;;;;-4.78;52.67;102002.13;5103585;28;20027;-61
2022/03/17 02:01:54;;;;;;;10.30;5.68;;;;;;;-4.27;51.87;102089.50;5103839;28;20328;-60
2022/03/17 02:04:20;;;;;;;10.05;5.82;;;;;;;-4.25;52.65;102066.84;5104091;28;20028;-61
2022/03/17 02:06:46;;;;;;;10.88;6.30;;;;;;;-4.28;52.55;102056.50;5102754;28;20494;-60
2022/03/17 02:09:11;;;;;;;8.00;5.57;;;;;;;-4.46;51.36;102061.91;5103571;28;20031;-61
2022/03/17 02:14:26;;;;;;;10.35;5.88;;;;;;;-4.47;52.31;102076.97;5103643;28;20201;-60
2022/03/17 02:16:52;;;;;;;11.57;5.60;;;;;;;-4.57;52.42;102067.78;5103948;28;20035;-61
2022/03/17 02:19:22;;;;;;;9.20;5.93;;;;;;;-4.67;51.69;102071.22;5103517;28;20047;-64
2022/03/17 02:21:49;;;;;;;12.05;6.70;;;;;;;-4.79;52.31;102067.72;5102321;28;20220;-61
2022/03/17 02:27:01;;;;;;;10.25;5.95;;;;;;;-4.88;52.89;102080.50;5100798;28;20020;-60
2022/03/17 02:29:28;;;;;;;8.00;5.65;;;;;;;-4.66;52.38;102082.19;5100899;28;20024;-61
2022/03/17 02:31:55;;;;;;;9.90;5.88;;;;;;;-4.60;52.99;102083.56;5101425;28;20016;-60
2022/03/17 02:34:20;;;;;;;8.70;6.35;;;;;;;-4.60;52.52;102080.13;5102353;28;20312;-62
2022/03/17 02:36:50;;;;;;;11.30;5.95;;;;;;;-4.52;52.38;102081.63;5102003;28;20031;-61
2022/03/17 02:39:17;;;;;;;8.55;5.25;;;;;;;-4.65;52.06;102074.72;5102794;28;20076;-60
2022/03/17 02:41:42;;;;;;;12.15;6.15;;;;;;;-4.53;52.54;102087.47;5102162;28;20020;-61
2022/03/17 02:44:09;;;;;;;9.40;5.75;;;;;;;-4.53;53.42;102097.59;5103476;28;20039;-60
2022/03/17 02:46:35;;;;;;;9.20;5.68;;;;;;;-4.47;52.10;102094.66;5103334;28;20126;-61
2022/03/17 02:49:01;;;;;;;11.57;5.95;;;;;;;-4.58;53.56;102101.38;5102877;28;20024;-61
2022/03/17 02:51:26;;;;;;;8.20;5.38;;;;;;;-4.70;52.51;102097.13;5102399;28;20042;-61
2022/03/17 02:53:52;;;;;;;9.27;5.75;;;;;;;-4.57;51.92;102115.81;5101883;28;20091;-60
2022/03/17 02:56:18;;;;;;;9.38;5.38;;;;;;;-4.61;51.85;102121.38;5102357;28;20032;-60
2022/03/17 02:58:43;;;;;;;11.82;6.72;;;;;;;-4.60;54.05;102118.06;5118212;28;20023;-60
2022/03/17 03:01:09;;;;;;;9.48;6.00;;;;;;;-4.70;52.76;102114.81;5103178;28;20020;-60
2022/03/17 03:03:35;;;;;;;8.52;5.78;;;;;;;-4.67;52.71;102116.72;5103213;28;20220;-60
2022/03/17 03:06:01;;;;;;;10.95;6.07;;;;;;;-4.65;53.31;102125.28;5103323;28;20087;-59
2022/03/17 03:08:27;;;;;;;9.50;5.78;;;;;;;-4.66;52.41;102131.09;5102863;28;20024;-59
2022/03/17 03:10:53;;;;;;;9.48;5.15;;;;;;;-4.93;51.56;102138.25;5103181;28;20233;-60
2022/03/17 03:13:19;;;;;;;8.88;5.65;;;;;;;-4.99;52.23;102127.63;5103179;28;20024;-60
2022/03/17 03:15:45;;;;;;;10.00;5.78;;;;;;;-4.93;52.13;102138.25;5103083;28;20325;-61
2022/03/17 03:18:11;;;;;;;9.05;6.20;;;;;;;-4.94;52.20;102140.66;5103076;28;20030;-60
2022/03/17 03:20:38;;;;;;;9.88;5.55;;;;;;;-4.89;53.52;102146.94;5103103;28;20023;-60
2022/03/17 03:23:04;;;;;;;13.07;6.40;;;;;;;-4.95;52.76;102149.84;5103088;28;20043;-59
2022/03/17 03:25:30;;;;;;;10.75;6.00;;;;;;;-4.88;51.90;102143.66;5101833;28;20061;-60
2022/03/17 03:27:55;;;;;;;7.85;5.40;;;;;;;-4.91;52.67;102148.47;5102846;28;20267;-60
2022/03/17 03:30:21;;;;;;;8.48;5.55;;;;;;;-4.85;52.91;102148.97;5102867;28;20028;-60
2022/03/17 03:32:47;;;;;;;9.85;5.80;;;;;;;-4.87;53.13;102151.38;5101801;28;20328;-60
2022/03/17 03:37:58;;;;;;;8.32;5.50;;;;;;;-5.13;51.00;102149.25;5102965;28;20035;-60
2022/03/17 03:40:24;;;;;;;10.52;5.70;;;;;;;-5.05;51.96;102149.88;5102853;28;20217;-60
2022/03/17 03:42:50;;;;;;;9.43;5.20;;;;;;;-5.10;52.06;102158.69;5105059;28;20031;-60
2022/03/17 03:45:16;;;;;;;11.07;5.40;;;;;;;-5.20;52.01;102154.56;5106503;28;20091;-60
2022/03/17 03:47:42;;;;;;;13.32;5.60;;;;;;;-5.22;51.50;102164.50;5105085;28;20320;-61
2022/03/17 03:50:09;;;;;;;10.95;5.70;;;;;;;-5.20;50.82;102169.72;5106029;28;20207;-61
2022/03/17 03:52:34;;;;;;;11.65;5.97;;;;;;;-5.20;51.24;102168.06;5106563;28;20019;-60
2022/03/17 03:55:00;;;;;;;9.35;5.32;;;;;;;-5.21;51.58;102158.72;5106094;28;20028;-60
2022/03/17 03:57:26;;;;;;;12.35;6.03;;;;;;;-5.19;51.54;102171.47;5106240;28;20036;-61
2022/03/17 03:59:51;;;;;;;12.10;6.60;;;;;;;-5.11;52.10;102175.50;5106040;28;20394;-61
2022/03/17 04:02:17;;;;;;;11.48;5.90;;;;;;;-5.07;52.51;102181.72;5104981;28;20209;-60
2022/03/17 04:04:42;;;;;;;9.40;5.70;;;;;;;-5.10;51.49;102184.88;5105686;28;20022;-60
2022/03/17 04:07:10;;;;;;;10.98;5.97;;;;;;;-5.16;50.74;102222.22;5105493;28;20027;-60
2022/03/17 04:09:41;;;;;;;9.10;5.53;;;;;;;-5.62;51.46;102130.91;5085586;28;20111;-61
2022/03/17 04:12:12;;;;;;;10.37;5.97;;;;;;;-5.51;50.69;102128.41;5085700;28;20237;-60
2022/03/17 04:14:38;;;;;;;9.00;5.57;;;;;;;-5.51;51.51;102157.06;5084335;28;20032;-60
2022/03/17 04:17:05;;;;;;;7.20;5.10;;;;;;;-5.17;49.99;102196.84;5085421;28;20024;-60
2022/03/17 04:19:31;;;;;;;12.38;5.32;;;;;;;-5.37;50.27;102196.09;5085280;28;20062;-61
2022/03/17 04:21:57;;;;;;;12.48;5.43;;;;;;;-5.20;50.64;102197.50;5085335;28;20088;-60
2022/03/17 04:24:23;;;;;;;9.55;5.90;;;;;;;-5.12;51.38;102199.00;5085487;28;20055;-60
2022/03/17 04:26:49;;;;;;;14.05;6.07;;;;;;;-5.20;50.70;102202.56;5085133;28;20256;-60
2022/03/17 04:29:15;;;;;;;12.63;5.70;;;;;;;-5.28;50.37;102206.06;5085236;28;20054;-60
2022/03/17 04:31:42;;;;;;;11.48;5.35;;;;;;;-5.14;50.43;102207.22;5085135;28;20020;-59
2022/03/17 04:34:08;;;;;;;20.00;5.35;;;;;;;-5.21;50.59;102206.69;5083876;28;20028;-60
2022/03/17 04:36:35;;;;;;;13.38;5.93;;;;;;;-4.94;51.07;102217.34;5084993;28;20083;-60
2022/03/17 04:39:02;;;;;;;8.40;5.55;;;;;;;-4.80;51.58;102210.88;5083914;28;20060;-60
2022/03/17 04:41:28;;;;;;;10.95;5.30;;;;;;;-4.71;49.79;102218.34;5084824;28;20036;-61
2022/03/17 04:43:54;;;;;;;11.13;5.78;;;;;;;-4.79;50.01;102217.69;5084887;28;20036;-60
2022/03/17 04:46:20;;;;;;;11.38;5.45;;;;;;;-4.80;49.41;102207.47;5086816;28;20016;-61
2022/03/17 04:48:45;;;;;;;10.13;5.25;;;;;;;-4.72;48.67;102216.56;5105112;28;20208;-60
2022/03/17 04:51:11;;;;;;;13.95;5.60;;;;;;;-4.86;48.11;102235.63;5104988;28;20023;-61
2022/03/17 04:53:37;;;;;;;16.55;5.47;;;;;;;-4.97;48.25;102234.75;5104625;28;20030;-61
2022/03/17 04:56:05;;;;;;;11.30;5.32;;;;;;;-5.03;49.05;102237.66;5104745;28;20031;-60
2022/03/17 04:58:32;;;;;;;11.02;5.47;;;;;;;-5.00;48.12;102226.03;5103483;28;20024;-60
2022/03/17 05:01:03;;;;;;;9.40;4.85;;;;;;;-4.90;48.26;102233.63;5104437;28;20095;-60
2022/03/17 05:03:28;;;;;;;10.95;4.88;;;;;;;-5.03;48.81;102235.16;5104899;28;20043;-62
2022/03/17 05:05:54;;;;;;;8.60;5.22;;;;;;;-5.03;48.92;102245.25;5104719;28;20214;-60
2022/03/17 05:08:21;;;;;;;9.55;5.45;;;;;;;-5.04;49.26;102237.53;5093911;28;20031;-57
2022/03/17 05:10:47;;;;;;;13.60;5.90;;;;;;;-4.80;47.09;102243.75;5083894;28;20044;-61
2022/03/17 05:13:14;;;;;;;8.20;4.88;;;;;;;-4.78;46.89;102248.91;5082798;28;20202;-60
2022/03/17 05:15:40;;;;;;;8.63;4.80;;;;;;;-4.94;47.62;102254.34;5083648;28;20032;-62
2022/03/17 05:18:07;;;;;;;9.48;4.95;;;;;;;-4.82;46.62;102255.34;5082887;28;20356;-61
2022/03/17 05:20:35;;;;;;;9.35;5.20;;;;;;;-5.14;46.73;102261.16;5083139;28;20063;-61
2022/03/17 05:23:05;;;;;;;13.18;4.75;;;;;;;-4.98;47.50;102254.84;5082939;28;20416;-63
2022/03/17 05:25:34;;;;;;;14.23;5.03;;;;;;;-4.81;48.30;102258.78;5081515;28;20024;-62
2022/03/17 05:27:59;;;;;;;14.02;4.97;;;;;;;-4.77;46.01;102250.69;5081731;28;20025;-61
2022/03/17 05:30:26;;;;;;;10.27;4.50;;;;;;;-5.06;45.90;102245.00;5083727;28;20024;-61
2022/03/17 05:32:52;;;;;;;11.13;5.20;;;;;;;-4.93;45.78;102246.91;5083951;28;20108;-61
2022/03/17 05:35:17;;;;;;;8.68;4.85;;;;;;;-4.78;46.46;102264.97;5082556;28;20020;-61
2022/03/17 05:37:43;;;;;;;10.90;5.13;;;;;;;-4.62;45.44;102268.75;5083339;28;20023;-62
2022/03/17 05:40:15;;;;;;;16.38;5.60;;;;;;;-4.46;45.02;102254.09;5083258;28;20039;-61
2022/03/17 05:42:48;;;;;;;;;;;;;;;-4.52;45.90;102256.09;5088252;28;20328;-61
2022/03/17 05:45:15;;;;;;;9.38;5.18;;;;;;;-4.83;45.96;102261.19;5103930;28;19904;-61
2022/03/17 05:47:47;;;;;;;12.25;6.20;;;;;;;-4.75;45.97;102255.09;5103990;28;20095;-61
2022/03/17 05:50:16;;;;;;;13.35;5.55;;;;;;;-4.47;46.60;102280.13;5103912;28;20320;-62
2022/03/17 05:52:43;;;;;;;13.60;5.70;;;;;;;-4.21;46.19;102258.59;5102695;28;20020;-62
2022/03/17 05:55:14;;;;;;;18.85;6.07;;;;;;;-3.99;45.48;102264.59;5102368;28;20373;-62
2022/03/17 05:57:41;;;;;;;8.05;4.75;;;;;;;-3.82;45.50;102273.53;5103614;28;20035;-62
2022/03/17 06:00:10;;;;;;;9.98;5.30;;;;;;;-3.75;44.43;102295.13;5102351;28;20028;-61
2022/03/17 06:02:36;;;;;;;8.15;4.43;;;;;;;-3.97;42.12;102277.38;5103496;28;20028;-60
2022/03/17 06:05:06;;;;;;;12.30;5.30;;;;;;;-3.87;43.26;102276.47;5103209;28;20035;-62
2022/03/17 06:07:43;;;;;;;9.05;5.10;;;;;;;-3.86;43.02;102266.44;5103413;28;20307;-62
2022/03/17 06:10:11;;;;;;;11.68;5.28;;;;;;;-3.88;42.75;102259.50;5103694;28;20032;-63
2022/03/17 06:12:38;;;;;;;14.57;4.90;;;;;;;-3.73;41.54;102253.09;5103601;28;20051;-62
2022/03/17 06:15:05;;;;;;;14.45;5.53;;;;;;;-3.52;42.13;102270.72;5103652;28;20028;-61
2022/03/17 06:17:52;;;;;;;9.88;4.88;;;;;;;-3.27;42.48;102254.91;5103605;28;20313;-61
2022/03/17 06:20:23;;;;;;;13.65;5.40;;;;;;;-2.45;40.67;102270.38;5103662;28;20035;-62
2022/03/17 06:22:51;;;;;;;11.60;4.70;;;;;;;-2.05;39.58;102272.38;5102489;28;20019;-61
2022/03/17 06:25:19;;;;;;;14.25;5.25;;;;;;;-1.26;38.04;102275.31;5103543;28;20031;-61
2022/03/17 06:27:45;;;;;;;11.05;5.05;;;;;;;-0.40;37.01;102277.66;5103539;28;20222;-62
2022/03/17 06:30:16;;;;;;;10.13;4.53;;;;;;;-0.18;35.62;102236.66;5103537;28;20345;-63
2022/03/17 06:32:43;;;;;;;12.35;4.72;;;;;;;1.09;35.30;102264.78;5084921;28;20028;-64
2022/03/17 06:35:15;;;;;;;16.00;5.05;;;;;;;2.07;33.88;102262.72;5103290;28;20047;-63
2022/03/17 06:37:41;;;;;;;12.65;4.43;;;;;;;1.67;32.42;102259.63;5102839;28;20026;-63
2022/03/17 06:40:07;;;;;;;10.73;3.80;;;;;;;1.76;31.19;102270.34;5103045;28;20054;-62
2022/03/17 06:42:33;;;;;;;8.13;4.55;;;;;;;0.94;31.49;102274.94;5103303;28;20279;-61
2022/03/17 06:44:59;;;;;;;9.52;4.28;;;;;;;0.56;31.75;102276.06;5101573;28;20031;-63
2022/03/17 06:47:25;;;;;;;12.50;5.45;;;;;;;0.92;32.89;102276.53;5102993;28;20035;-63
2022/03/17 06:49:51;;;;;;;13.95;5.10;;;;;;;1.69;31.32;102270.78;5103439;28;20020;-63
2022/03/17 06:52:17;;;;;;;12.18;4.00;;;;;;;2.00;31.55;102269.97;5083621;28;20035;-63
2022/03/17 06:54:43;;;;;;;13.02;4.45;;;;;;;2.37;30.05;102264.31;5102865;28;20028;-62
2022/03/17 06:57:09;;;;;;;7.22;4.10;;;;;;;2.69;29.92;102265.16;5103011;28;20224;-62
2022/03/17 06:59:34;;;;;;;14.50;4.28;;;;;;;3.47;29.35;102265.72;5102907;28;20028;-62
2022/03/17 07:02:00;;;;;;;13.77;3.70;;;;;;;3.46;29.09;102261.38;5103032;28;20031;-63
2022/03/17 07:04:25;;;;;;;8.63;4.13;;;;;;;3.81;28.66;102259.69;5103054;28;20024;-62
2022/03/17 07:06:51;;;;;;;12.15;4.00;;;;;;;3.13;27.21;102256.34;5103132;28;20194;-62
2022/03/17 07:09:17;;;;;;;11.57;3.88;;;;;;;2.89;27.95;102266.19;5102621;28;20225;-62
2022/03/17 07:11:44;;;;;;;13.30;4.45;;;;;;;2.64;28.02;102274.28;5102703;28;20241;-61
2022/03/17 07:14:10;;;;;;;7.85;3.83;;;;;;;3.24;28.48;102260.31;5103074;28;20039;-62
2022/03/17 07:16:35;;;;;;;6.85;3.78;;;;;;;2.36;28.51;102277.91;5104788;28;20027;-62
2022/03/17 07:19:01;;;;;;;11.38;4.30;;;;;;;1.92;28.91;102272.09;5106683;28;20023;-63
2022/03/17 07:21:27;;;;;;;12.15;3.88;;;;;;;1.70;28.96;102277.66;5106655;28;20028;-62
2022/03/17 07:23:52;;;;;;;9.95;4.18;;;;;;;2.05;29.07;102281.31;5106669;28;20058;-62
2022/03/17 07:26:19;;;;;;;10.00;3.80;;;;;;;3.12;28.32;102272.47;5106618;28;20217;-63
2022/03/17 07:28:45;;;;;;;20.15;4.35;;;;;;;2.22;27.68;102272.91;5106530;28;20035;-61
2022/03/17 07:31:10;;;;;;;15.40;4.55;;;;;;;2.27;28.37;102279.94;5105832;28;20078;-62
2022/03/17 07:33:38;;;;;;;11.18;3.72;;;;;;;3.10;27.46;102279.22;5105662;28;20024;-62
2022/03/17 07:36:06;;;;;;;11.65;4.30;;;;;;;3.18;27.01;102275.38;5106251;28;20035;-61
2022/03/17 07:38:32;;;;;;;13.88;3.70;;;;;;;3.50;26.08;102283.78;5106080;28;20020;-62
2022/03/17 07:40:57;;;;;;;8.88;2.88;;;;;;;2.09;26.38;102295.16;5106468;28;20325;-62
2022/03/17 07:43:23;;;;;;;12.27;3.20;;;;;;;1.58;27.05;102300.81;5106512;28;20031;-63
2022/03/17 07:45:49;;;;;;;5.32;2.83;;;;;;;1.85;26.84;102291.31;5105264;28;20054;-62
2022/03/17 07:48:15;;;;;;;10.13;3.60;;;;;;;1.31;27.59;102300.09;5098223;28;20020;-62
2022/03/17 07:50:41;;;;;;;6.72;3.10;;;;;;;0.89;28.20;102295.06;5086030;28;20032;-62
2022/03/17 07:53:06;;;;;;;7.78;4.00;;;;;;;2.50;26.78;102283.75;5094838;28;20062;-63
2022/03/17 07:55:33;;;;;;;11.00;2.88;;;;;;;2.20;27.22;102284.72;5106036;28;20035;-62
2022/03/17 07:57:59;;;;;;;8.07;2.60;;;;;;;1.41;27.50;102282.00;5105955;28;20020;-62
2022/03/17 08:00:24;;;;;;;12.63;3.85;;;;;;;1.46;27.67;102302.69;5105931;28;20028;-62
2022/03/17 08:02:50;;;;;;;6.68;2.80;;;;;;;1.38;27.17;102300.56;5105835;28;20020;-62
2022/03/17 08:05:16;;;;;;;6.80;3.17;;;;;;;1.28;27.56;102303.34;5105913;28;20190;-63
2022/03/17 08:07:42;;;;;;;8.75;3.00;;;;;;;1.16;27.43;102295.84;5105759;28;20016;-62
2022/03/17 08:10:08;;;;;;;5.13;2.90;;;;;;;1.21;27.25;102298.66;5105912;28;20084;-62
2022/03/17 08:12:34;;;;;;;9.05;2.78;;;;;;;1.38;27.92;102313.31;5105951;28;20048;-62
2022/03/17 08:15:01;;;;;;;11.75;3.55;;;;;;;0.69;27.80;102302.38;5105790;28;20024;-62
2022/03/17 08:17:28;;;;;;;8.00;2.90;;;;;;;1.86;27.81;102302.41;5105762;28;20040;-61
2022/03/17 08:19:55;;;;;;;6.28;3.25;;;;;;;0.95;27.78;102308.19;5105667;28;20024;-61
2022/03/17 08:22:21;;;;;;;8.82;3.30;;;;;;;0.78;28.91;102304.63;5121679;28;20044;-62
2022/03/17 08:24:47;;;;;;;6.45;2.55;;;;;;;0.82;27.73;102308.25;5105610;28;20541;-62
2022/03/17 08:27:12;;;;;;;7.15;2.80;;;;;;;0.94;28.25;102305.56;5105093;28;20028;-62
2022/03/17 08:29:42;;;;;;;7.70;2.70;;;;;;;0.54;27.33;102328.59;5105290;28;20020;-62
2022/03/17 08:32:08;;;;;;;6.38;2.55;;;;;;;0.41;27.58;102307.44;5105561;28;20071;-61
2022/03/17 08:34:34;;;;;;;6.97;2.50;;;;;;;1.07;27.58;102312.28;5105388;28;20032;-61
2022/03/17 08:37:00;;;;;;;15.30;3.00;;;;;;;0.73;27.30;102313.66;5105336;28;20028;-61
2022/03/17 08:39:26;;;;;;;8.00;2.60;;;;;;;0.64;26.95;102324.19;5105313;28;20087;-61
2022/03/17 08:41:53;;;;;;;6.75;2.25;;;;;;;0.85;26.89;102310.97;5105253;28;20087;-62
2022/03/17 08:44:19;;;;;;;9.63;2.25;;;;;;;1.11;26.64;102304.91;5105139;28;20016;-62
2022/03/17 08:49:30;;;;;;;6.95;2.42;;;;;;;1.50;26.09;102300.38;5105185;28;20055;-61
2022/03/17 08:51:59;;;;;;;4.72;2.53;;;;;;;1.70;25.72;102313.44;5105135;28;20066;-61
2022/03/17 08:54:28;;;;;;;6.75;2.53;;;;;;;0.98;26.68;102307.50;5105066;28;20024;-60
2022/03/17 08:57:01;;;;;;;6.97;2.38;;;;;;;0.79;26.64;102245.16;5104952;28;20288;-62
2022/03/17 08:59:32;;;;;;;6.45;2.53;;;;;;;1.05;26.44;102267.94;5104886;28;20028;-61
2022/03/17 09:02:04;;;;;;;4.77;2.57;;;;;;;1.39;25.84;102337.16;5104967;28;20051;-62
2022/03/17 09:04:29;;;;;;;;;;;;;;;2.36;27.47;102314.56;5105312;28;20447;-61
2022/03/17 09:07:02;;;;;;;11.15;2.45;;;;;;;3.35;26.41;102303.50;5104892;28;19904;-61
2022/03/17 09:09:33;;;;;;;6.13;2.47;;;;;;;2.58;24.46;102260.34;5104526;28;20094;-61
2022/03/17 09:11:59;;;;;;;6.90;2.25;;;;;;;2.80;25.80;102327.13;5104636;28;20032;-61
2022/03/17 09:14:25;;;;;;;5.82;2.60;;;;;;;3.19;25.23;102317.22;5103398;28;20051;-61
2022/03/17 09:16:52;;;;;;;2.97;2.10;;;;;;;1.28;25.96;102330.53;5104521;28;20077;-61
2022/03/17 09:19:21;;;;;;;5.50;2.28;;;;;;;0.85;26.34;102319.50;5104432;28;20351;-61
2022/03/17 09:21:47;;;;;;;5.47;2.50;;;;;;;2.62;26.51;102316.78;5104331;28;20027;-61
2022/03/17 09:24:13;;;;;;;4.35;2.40;;;;;;;1.42;26.28;102316.91;5120208;28;20035;-61
2022/03/17 09:26:38;;;;;;;5.38;2.55;;;;;;;0.97;26.68;102326.13;5104399;28;20024;-62
2022/03/17 09:29:04;;;;;;;5.40;2.67;;;;;;;1.13;26.21;102323.75;5104206;28;20031;-60
2022/03/17 09:31:30;;;;;;;5.68;2.60;;;;;;;1.87;25.79;102319.50;5103945;28;20078;-61
2022/03/17 09:33:56;;;;;;;5.20;2.50;;;;;;;2.39;26.04;102309.66;5104128;28;20040;-60
2022/03/17 09:36:22;;;;;;;7.90;2.65;;;;;;;2.39;25.76;102313.84;5102948;28;20046;-60
2022/03/17 09:41:33;;;;;;;8.00;2.97;;;;;;;0.96;26.40;102311.66;5103631;28;20036;-61
2022/03/17 09:44:00;;;;;;;5.70;2.95;;;;;;;1.31;27.28;102306.09;5103798;28;20321;-60
2022/03/17 09:46:27;;;;;;;3.67;2.17;;;;;;;1.39;26.37;102329.50;5103977;28;20079;-60
2022/03/17 09:48:54;;;;;;;5.05;2.65;;;;;;;0.81;27.36;102284.41;5103818;28;20073;-60
2022/03/17 09:51:23;;;;;;;3.85;2.28;;;;;;;1.20;26.84;102314.78;5102584;28;20040;-61
2022/03/17 09:53:53;;;;;;;4.60;2.70;;;;;;;1.57;26.89;102301.63;5102586;28;20054;-60
2022/03/17 09:56:25;;;;;;;8.07;2.75;;;;;;;1.55;26.40;102295.53;5103616;28;20032;-60
2022/03/17 09:58:53;;;;;;;5.75;2.40;;;;;;;0.75;26.84;102303.56;5103887;28;20339;-59
2022/03/17 10:01:20;;;;;;;8.00;2.25;;;;;;;0.77;27.38;102235.66;5103729;28;20031;-61
2022/03/17 10:03:47;;;;;;;6.32;2.67;;;;;;;1.20;26.84;102290.13;5102663;28;20020;-61
2022/03/17 10:06:14;;;;;;;4.70;2.17;;;;;;;1.63;27.86;102293.44;5103849;28;20030;-61
2022/03/17 10:08:42;;;;;;;3.75;2.08;;;;;;;1.38;25.49;102297.09;5103504;28;20217;-60
2022/03/17 10:11:08;;;;;;;3.28;1.85;;;;;;;0.94;26.19;102296.25;5103616;28;20040;-60
2022/03/17 10:13:44;;;;;;;5.57;2.63;;;;;;;1.24;25.39;102300.53;5103757;28;20070;-59
2022/03/17 10:16:17;;;;;;;4.05;2.03;;;;;;;0.37;26.00;102228.16;5103512;28;20020;-61
2022/03/17 10:18:43;;;;;;;8.02;2.08;;;;;;;1.10;26.94;102271.63;5103541;28;20016;-60
2022/03/17 10:21:16;;;;;;;4.20;2.13;;;;;;;1.09;26.75;102291.16;5102375;28;20020;-61
2022/03/17 10:23:50;;;;;;;4.35;2.33;;;;;;;0.96;25.71;102273.38;5103422;28;20250;-61
2022/03/17 10:26:42;;;;;;;5.45;1.95;;;;;;;1.09;25.81;102285.19;5103386;28;20027;-61
2022/03/17 10:29:09;;;;;;;5.28;2.30;;;;;;;1.20;26.17;102279.94;5103123;28;20340;-62
2022/03/17 10:31:56;;;;;;;6.50;2.20;;;;;;;1.05;26.00;102280.69;5101970;28;20199;-61
2022/03/17 10:34:24;;;;;;;3.72;2.08;;;;;;;0.88;25.86;102219.31;5103421;28;20023;-60
2022/03/17 10:36:50;;;;;;;4.40;2.08;;;;;;;1.37;25.96;102274.94;5097716;28;20020;-59
2022/03/17 10:39:16;;;;;;;3.42;2.08;;;;;;;1.47;26.02;102278.88;5083094;28;20261;-61
2022/03/17 10:41:44;;;;;;;4.57;2.38;;;;;;;1.58;26.00;102275.28;5081482;28;20027;-61
2022/03/17 10:44:12;;;;;;;3.92;1.95;;;;;;;1.53;25.23;102269.91;5082117;28;20024;-60
2022/03/17 10:46:38;;;;;;;4.65;2.20;;;;;;;1.79;26.83;102261.97;5082504;28;20035;-60
2022/03/17 10:49:07;;;;;;;5.38;2.28;;;;;;;1.50;26.90;102216.13;5081417;28;20039;-60
2022/03/17 10:51:43;;;;;;;3.78;2.35;;;;;;;1.31;25.81;102201.44;5084106;28;20092;-60
2022/03/17 10:54:11;;;;;;;3.92;2.28;;;;;;;1.42;25.58;102265.84;5103940;28;20081;-59
2022/03/17 10:56:38;;;;;;;3.53;1.98;;;;;;;1.30;26.19;102242.19;5106902;28;20016;-61
2022/03/17 10:59:06;;;;;;;3.50;2.00;;;;;;;1.79;25.76;102265.41;5107097;28;20028;-60
2022/03/17 11:01:40;;;;;;;4.20;1.92;;;;;;;1.91;25.64;102262.69;5107355;28;20047;-60
2022/03/17 11:04:06;;;;;;;3.85;1.70;;;;;;;1.64;24.80;102255.22;5107216;28;20020;-61
2022/03/17 11:06:33;;;;;;;3.00;2.00;;;;;;;1.57;25.31;102264.97;5107106;28;20020;-59
2022/03/17 11:09:03;;;;;;;4.47;2.30;;;;;;;1.48;24.86;102265.34;5106995;28;20030;-60
2022/03/17 11:11:29;;;;;;;5.57;1.95;;;;;;;1.30;26.15;102266.03;5106960;28;20051;-60
2022/03/17 11:13:56;;;;;;;4.00;2.10;;;;;;;1.51;25.13;102260.41;5107066;28;20028;-61
2022/03/17 11:16:29;;;;;;;4.88;2.20;;;;;;;1.49;26.04;102250.09;5106881;28;20056;-60
2022/03/17 11:18:55;;;;;;;4.43;1.90;;;;;;;2.00;26.88;102255.50;5107186;28;20024;-60
2022/03/17 11:21:28;;;;;;;4.85;2.05;;;;;;;1.82;27.11;102191.47;5106715;28;20111;-60
2022/03/17 11:24:04;;;;;;;3.53;1.90;;;;;;;2.19;26.56;102265.06;5105680;28;20056;-61
2022/03/17 11:26:39;;;;;;;3.65;2.00;;;;;;;1.78;25.58;102188.69;5106681;28;20028;-61
2022/03/17 11:29:09;;;;;;;5.28;1.90;;;;;;;2.06;25.15;102248.16;5105381;28;20020;-61
2022/03/17 11:31:58;;;;;;;6.30;2.10;;;;;;;2.00;24.85;102241.88;5106361;28;20040;-60
2022/03/17 11:34:42;;;;;;;4.95;1.90;;;;;;;2.00;25.36;102244.41;5106504;28;20366;-60
2022/03/17 11:37:22;;;;;;;2.65;1.90;;;;;;;1.73;25.62;102247.19;5106377;28;20335;-60
2022/03/17 11:39:57;;;;;;;12.35;2.70;;;;;;;1.94;25.53;102244.06;5106460;28;20024;-60
2022/03/17 11:42:34;;;;;;;3.13;2.03;;;;;;;1.78;25.52;102198.91;5105959;28;20321;-60
2022/03/17 11:45:03;;;;;;;7.30;2.20;;;;;;;2.26;25.89;102237.28;5106393;28;20310;-61